createdAt,value
2019-05-15T00:00:45.102Z,1
2019-05-15T00:05:49.480Z,1
2019-05-15T00:10:50.212Z,1
2019-05-15T00:15:52.634Z,1
2019-05-15T00:20:54.998Z,1
2019-05-15T00:25:58.410Z,1
2019-05-15T00:30:59.874Z,1
2019-05-15T00:36:02.374Z,1
2019-05-15T00:41:04.818Z,1
2019-05-15T00:46:09.125Z,1
2019-05-15T00:51:09.947Z,1
2019-05-15T00:56:12.348Z,1
2019-05-15T01:01:14.613Z,1
2019-05-15T01:06:19.022Z,1
2019-05-15T01:11:19.540Z,1
2019-05-15T01:16:22.021Z,1
2019-05-15T01:21:24.575Z,1
2019-05-15T01:26:28.185Z,1
2019-05-15T01:31:29.795Z,16.2
2019-05-15T01:36:31.845Z,36.8
2019-05-15T01:41:34.323Z,45.1
2019-05-15T01:46:39.253Z,47.9
2019-05-15T01:51:39.346Z,51.3
2019-05-15T01:56:41.863Z,50.8
2019-05-15T02:01:44.249Z,48.2
2019-05-15T02:06:48.208Z,46.6
2019-05-15T02:11:49.078Z,42.7
2019-05-15T02:16:51.613Z,34.1
2019-05-15T02:21:54.045Z,20.6
2019-05-15T02:26:58.658Z,6.1
2019-05-15T02:31:59.464Z,1
2019-05-15T02:37:01.432Z,1
2019-05-15T02:42:03.923Z,1
2019-05-15T02:47:09.175Z,1
2019-05-15T02:52:09.733Z,1
2019-05-15T02:57:11.194Z,1
2019-05-15T03:02:13.702Z,1
2019-05-15T03:07:18.961Z,1
2019-05-15T03:12:19.527Z,1
2019-05-15T03:17:21.142Z,1
2019-05-15T03:22:23.570Z,1
2019-05-15T03:27:25.958Z,1
2019-05-15T03:32:40.654Z,1
2019-05-15T03:37:33.113Z,1
2019-05-15T03:42:33.335Z,1
2019-05-15T03:47:35.782Z,1
2019-05-15T03:52:39.385Z,1
2019-05-15T03:57:40.964Z,1
2019-05-15T04:02:43.178Z,1
2019-05-15T04:07:45.698Z,1
2019-05-15T04:12:49.213Z,1
2019-05-15T04:17:50.627Z,1
2019-05-15T04:22:53.090Z,1
2019-05-15T04:27:58.676Z,1
2019-05-15T04:32:59.361Z,1
2019-05-15T04:38:00.426Z,1
2019-05-15T04:43:02.942Z,1
2019-05-15T04:48:05.357Z,1
2019-05-15T04:53:10.467Z,1
2019-05-15T04:58:10.734Z,1
2019-05-15T05:03:12.767Z,1
2019-05-15T05:08:15.295Z,1
2019-05-15T05:13:19.728Z,1
2019-05-15T05:18:20.212Z,1
2019-05-15T05:23:22.661Z,1
2019-05-15T05:28:25.089Z,1
2019-05-15T05:33:28.598Z,1
2019-05-15T05:38:30.284Z,1
2019-05-15T05:43:32.487Z,1
2019-05-15T05:48:34.878Z,1
2019-05-15T05:53:38.273Z,1
2019-05-15T05:58:39.850Z,1
2019-05-15T06:03:42.526Z,1
2019-05-15T06:08:44.863Z,1
2019-05-15T06:13:51.753Z,1
2019-05-15T06:18:49.672Z,1
2019-05-15T06:23:55.022Z,1
2019-05-15T06:28:54.652Z,1
2019-05-15T06:33:58.036Z,1
2019-05-15T06:38:59.549Z,1
2019-05-15T06:44:02.030Z,1
2019-05-15T06:49:04.422Z,1
2019-05-15T06:59:09.500Z,1
2019-05-15T07:04:12.196Z,1
2019-05-15T07:09:14.215Z,1
2019-05-15T07:14:18.064Z,1
2019-05-15T07:19:19.318Z,1
2019-05-15T07:24:21.713Z,1
2019-05-15T07:29:24.100Z,1
2019-05-15T07:34:28.301Z,1
2019-05-15T07:39:29.038Z,1
2019-05-15T07:44:31.547Z,1
2019-05-15T07:49:33.962Z,1
2019-05-15T07:54:38.286Z,1
2019-05-15T07:59:38.837Z,1
2019-05-15T08:04:41.361Z,1
2019-05-15T08:09:43.895Z,1
2019-05-15T08:14:48.141Z,1
2019-05-15T08:19:48.782Z,1
2019-05-15T08:24:51.337Z,1
2019-05-15T08:29:53.622Z,1
2019-05-15T08:34:56.043Z,1
2019-05-15T08:45:01.099Z,1
2019-05-15T08:50:03.376Z,1
2019-05-15T08:55:08.330Z,1
2019-05-15T09:00:09.619Z,1
2019-05-15T09:05:10.901Z,1
2019-05-15T09:10:18.338Z,1
2019-05-15T09:15:18.286Z,1
2019-05-15T09:20:19.379Z,1
2019-05-15T09:25:20.609Z,1
2019-05-15T09:30:23.244Z,1
2019-05-15T09:35:27.698Z,1
2019-05-15T09:40:43.040Z,1
2019-05-15T09:45:30.487Z,1
2019-05-15T09:50:33.116Z,1
2019-05-15T09:55:38.123Z,1
2019-05-15T10:00:38.539Z,1
2019-05-15T10:05:40.445Z,1
2019-05-15T10:10:48.706Z,1
2019-05-15T10:15:48.253Z,1
2019-05-15T10:20:47.761Z,1
2019-05-15T10:25:50.061Z,1
2019-05-15T10:30:52.513Z,1
2019-05-15T10:35:54.983Z,1
2019-05-15T10:41:08.382Z,1
2019-05-15T10:46:00.202Z,1
2019-05-15T10:51:07.022Z,1
2019-05-15T10:56:04.852Z,1
2019-05-15T11:01:10.947Z,1
2019-05-15T11:06:09.771Z,1
2019-05-15T11:11:12.201Z,1
2019-05-15T11:16:14.871Z,1
2019-05-15T11:21:18.961Z,1
2019-05-15T11:26:19.652Z,1
2019-05-15T11:31:24.746Z,1
2019-05-15T11:36:24.595Z,1
2019-05-15T11:41:30.761Z,1
2019-05-15T11:46:29.490Z,1
2019-05-15T11:51:31.860Z,1
2019-05-15T11:56:34.340Z,1
2019-05-15T12:01:38.242Z,1
2019-05-15T12:06:39.199Z,1
2019-05-15T12:11:41.702Z,1
2019-05-15T12:17:00.862Z,1
2019-05-15T12:21:48.812Z,1
2019-05-15T12:26:49.106Z,1
2019-05-15T12:31:51.558Z,1
2019-05-15T12:36:57.862Z,1
2019-05-15T14:02:39.677Z,1
2019-05-15T14:07:48.547Z,1
2019-05-15T14:12:41.312Z,1
2019-05-15T14:17:43.102Z,1
2019-05-15T14:22:47.885Z,1
2019-05-15T14:27:48.588Z,1
2019-05-15T14:32:50.533Z,1
2019-05-15T14:38:03.358Z,1
2019-05-15T14:42:55.502Z,1
2019-05-15T14:47:58.220Z,1
2019-05-15T14:53:00.422Z,1
2019-05-15T14:58:02.765Z,1
2019-05-15T15:03:05.274Z,1
2019-05-15T15:08:18.197Z,1
2019-05-15T15:13:10.146Z,1
2019-05-15T15:18:12.805Z,1
2019-05-15T15:23:15.178Z,1
2019-05-15T15:28:18.819Z,1
2019-05-15T15:33:20.172Z,1
2019-05-15T15:38:37.352Z,1
2019-05-15T15:43:25.057Z,1
2019-05-15T15:48:28.689Z,1
2019-05-15T15:53:29.805Z,1
2019-05-15T15:58:32.310Z,1
2019-05-15T16:03:34.800Z,1
2019-05-15T16:08:51.045Z,1
2019-05-15T16:13:39.937Z,1
2019-05-15T16:23:44.582Z,1
2019-05-15T16:28:48.900Z,1
2019-05-15T16:33:49.497Z,1
2019-05-15T16:39:03.872Z,1
2019-05-15T16:43:54.444Z,1
2019-05-15T16:48:58.335Z,1
2019-05-15T16:53:59.336Z,1
2019-05-15T16:59:01.886Z,1
2019-05-15T17:04:04.282Z,1
2019-05-15T17:09:18.237Z,1
2019-05-15T17:14:09.218Z,1
2019-05-15T17:19:11.650Z,1
2019-05-15T17:24:14.179Z,1
2019-05-15T17:29:18.483Z,1
2019-05-15T17:34:18.977Z,1
2019-05-15T17:39:33.606Z,1
2019-05-15T17:44:23.962Z,1
2019-05-15T17:49:28.005Z,1
2019-05-15T17:54:28.900Z,1
2019-05-15T17:59:31.359Z,1
2019-05-15T18:04:33.791Z,1
2019-05-15T18:09:48.233Z,1
2019-05-15T18:14:38.755Z,1
2019-05-15T18:19:41.160Z,1
2019-05-15T18:24:45.312Z,1
2019-05-15T18:29:48.017Z,1
2019-05-15T18:34:48.861Z,1
2019-05-15T18:40:01.128Z,1
2019-05-15T18:44:53.820Z,1
2019-05-15T18:50:04.909Z,1
2019-05-15T18:54:58.824Z,1
2019-05-15T19:00:01.112Z,1
2019-05-15T19:05:03.484Z,1
2019-05-15T19:10:07.761Z,1
2019-05-15T19:15:09.164Z,1
2019-05-15T19:20:10.606Z,1
2019-05-15T19:25:13.811Z,1
2019-05-15T19:30:15.626Z,1
2019-05-15T19:35:18.487Z,1
2019-05-15T19:40:20.519Z,1
2019-05-15T19:45:23.019Z,1
2019-05-15T19:50:25.478Z,1
2019-05-15T19:55:27.821Z,1
2019-05-15T20:00:30.267Z,1
2019-05-15T20:05:32.688Z,1
2019-05-15T20:15:38.009Z,1
2019-05-15T20:20:40.136Z,1
2019-05-15T20:25:42.582Z,9.8
2019-05-15T20:30:44.991Z,14
2019-05-15T20:35:47.956Z,16.8
2019-05-15T20:40:49.972Z,26.4
2019-05-15T20:45:52.368Z,37.2
2019-05-15T20:50:54.875Z,60.1
2019-05-15T20:55:58.836Z,61.2
2019-05-15T21:00:59.741Z,71.7
2019-05-15T21:06:02.186Z,99.9
2019-05-15T21:11:04.651Z,99.9
2019-05-15T21:16:08.243Z,99.9
2019-05-15T21:21:10.399Z,99.9
2019-05-15T21:26:12.062Z,99.9
2019-05-15T21:31:14.473Z,99.9
2019-05-15T21:36:19.239Z,99.9
2019-05-15T21:41:19.379Z,99.9
2019-05-15T21:46:21.947Z,99.9
2019-05-15T21:51:24.317Z,99.9
2019-05-15T21:56:27.948Z,99.9
2019-05-15T22:01:29.422Z,99.9
2019-05-15T22:06:31.642Z,99.9
2019-05-15T22:11:34.224Z,99.9
2019-05-15T22:16:36.735Z,99.9
2019-05-15T22:21:40.672Z,99.9
2019-05-15T22:26:41.522Z,99.9
2019-05-15T22:31:44.040Z,99.9
2019-05-15T22:36:48.801Z,99.9
2019-05-15T22:41:48.919Z,99.9
2019-05-15T22:46:51.332Z,99.9
2019-05-15T22:51:53.779Z,99.9
2019-05-15T22:56:57.650Z,99.9
2019-05-15T23:01:58.694Z,99.9
2019-05-15T23:07:01.175Z,99.9
2019-05-15T23:12:03.683Z,99.9
2019-05-15T23:17:08.125Z,99.9
2019-05-15T23:22:08.648Z,99.9
2019-05-15T23:27:11.012Z,99.9
2019-05-15T23:32:13.538Z,99.9
2019-05-15T23:37:15.905Z,99.9
2019-05-15T23:42:18.617Z,99.9
2019-05-15T23:47:20.826Z,99.9
2019-05-15T23:52:23.295Z,99.9
2019-05-15T23:57:28.495Z,99.9
